createdAt,value
2018-04-07T00:00:39.525Z,9.67
2018-04-07T00:03:07.075Z,9.70
2018-04-07T00:05:34.589Z,9.68
2018-04-07T00:08:02.522Z,9.71
2018-04-07T00:10:30.844Z,9.70
2018-04-07T00:12:59.289Z,9.67
2018-04-07T00:15:27.593Z,9.61
2018-04-07T00:17:55.764Z,9.60
2018-04-07T00:20:23.313Z,9.58
2018-04-07T00:22:50.821Z,9.54
2018-04-07T00:25:18.342Z,9.48
2018-04-07T00:27:45.901Z,9.41
2018-04-07T00:30:13.417Z,9.53
2018-04-07T00:32:40.930Z,9.48
2018-04-07T00:35:08.642Z,9.44
2018-04-07T00:37:36.153Z,9.38
2018-04-07T00:40:03.667Z,9.29
2018-04-07T00:42:31.322Z,9.21
2018-04-07T00:44:58.843Z,9.25
2018-04-07T00:47:26.359Z,9.21
2018-04-07T00:49:54.137Z,9.08
2018-04-07T00:52:22.065Z,9.15
2018-04-07T00:54:49.578Z,9.11
2018-04-07T00:57:17.150Z,9.02
2018-04-07T00:59:44.661Z,9.01
2018-04-07T01:02:12.170Z,8.97
2018-04-07T01:04:39.710Z,8.90
2018-04-07T01:07:07.226Z,8.85
2018-04-07T01:09:34.748Z,8.83
2018-04-07T01:12:02.361Z,8.81
2018-04-07T01:14:29.868Z,8.79
2018-04-07T01:16:57.381Z,8.76
2018-04-07T01:19:25.122Z,8.73
2018-04-07T01:21:52.636Z,8.64
2018-04-07T01:24:20.150Z,8.70
2018-04-07T01:26:47.785Z,8.67
2018-04-07T01:29:15.296Z,8.60
2018-04-07T01:31:42.806Z,8.61
2018-04-07T01:34:10.574Z,8.54
2018-04-07T01:36:38.085Z,8.48
2018-04-07T01:39:06.644Z,8.46
2018-04-07T01:41:34.185Z,8.45
2018-04-07T01:44:01.708Z,8.37
2018-04-07T01:46:29.407Z,8.32
2018-04-07T01:48:56.938Z,8.31
2018-04-07T01:51:24.502Z,8.34
2018-04-07T01:53:52.035Z,8.28
2018-04-07T01:56:19.587Z,8.30
2018-04-07T01:58:47.110Z,8.28
2018-04-07T02:01:14.625Z,8.28
2018-04-07T02:03:42.756Z,8.24
2018-04-07T02:06:10.290Z,8.27
2018-04-07T02:08:37.797Z,8.26
2018-04-07T02:11:05.341Z,8.27
2018-04-07T02:13:32.858Z,8.20
2018-04-07T02:16:00.374Z,8.21
2018-04-07T02:18:27.913Z,8.21
2018-04-07T02:20:55.424Z,8.18
2018-04-07T02:23:22.953Z,8.19
2018-04-07T02:25:50.501Z,8.12
2018-04-07T02:28:19.696Z,8.13
2018-04-07T02:30:47.210Z,8.10
2018-04-07T02:33:14.754Z,8.08
2018-04-07T02:35:42.282Z,8.02
2018-04-07T02:38:10.320Z,7.99
2018-04-07T02:40:38.099Z,7.93
2018-04-07T02:43:05.629Z,7.93
2018-04-07T02:45:33.169Z,7.92
2018-04-07T02:48:00.685Z,7.78
2018-04-07T02:50:28.274Z,7.78
2018-04-07T02:52:55.821Z,7.76
2018-04-07T02:55:23.374Z,7.58
2018-04-07T02:57:50.915Z,7.60
2018-04-07T03:00:18.430Z,7.52
2018-04-07T03:02:45.985Z,7.48
2018-04-07T03:05:13.501Z,7.46
2018-04-07T03:07:41.014Z,7.30
2018-04-07T03:10:08.562Z,7.34
2018-04-07T03:12:36.074Z,7.39
2018-04-07T03:15:03.625Z,7.30
2018-04-07T03:17:31.170Z,7.32
2018-04-07T03:19:58.687Z,7.33
2018-04-07T03:22:26.258Z,7.19
2018-04-07T03:24:53.771Z,7.21
2018-04-07T03:27:21.477Z,7.16
2018-04-07T03:29:49.034Z,7.20
2018-04-07T03:32:16.541Z,7.12
2018-04-07T03:34:44.090Z,7.18
2018-04-07T03:37:11.606Z,7.11
2018-04-07T03:39:39.272Z,7.07
2018-04-07T03:42:06.789Z,7.10
2018-04-07T03:44:34.307Z,7.06
2018-04-07T03:47:01.904Z,7.03
2018-04-07T03:49:29.414Z,6.92
2018-04-07T03:51:57.271Z,6.93
2018-04-07T03:54:24.805Z,6.92
2018-04-07T03:56:52.318Z,6.89
2018-04-07T03:59:20.098Z,6.95
2018-04-07T04:01:47.601Z,6.97
2018-04-07T04:04:15.140Z,6.91
2018-04-07T04:06:42.652Z,6.79
2018-04-07T04:09:10.166Z,6.75
2018-04-07T04:11:37.698Z,6.80
2018-04-07T04:14:05.217Z,6.66
2018-04-07T04:16:33.065Z,6.70
2018-04-07T04:19:00.577Z,6.50
2018-04-07T04:21:28.088Z,6.37
2018-04-07T04:23:56.252Z,6.33
2018-04-07T04:26:23.777Z,6.25
2018-04-07T04:28:51.512Z,6.27
2018-04-07T04:31:19.029Z,6.43
2018-04-07T04:33:46.541Z,6.45
2018-04-07T04:36:14.086Z,6.46
2018-04-07T04:38:41.598Z,6.43
2018-04-07T04:41:09.284Z,6.50
2018-04-07T04:43:36.802Z,6.49
2018-04-07T04:46:04.326Z,6.51
2018-04-07T04:48:31.863Z,6.62
2018-04-07T04:50:59.378Z,6.62
2018-04-07T04:53:26.951Z,6.58
2018-04-07T04:55:54.531Z,6.63
2018-04-07T04:58:22.037Z,6.60
2018-04-07T05:00:49.683Z,6.59
2018-04-07T05:03:17.207Z,6.71
2018-04-07T05:05:44.872Z,6.81
2018-04-07T05:08:12.384Z,6.75
2018-04-07T05:10:39.908Z,6.79
2018-04-07T05:13:07.445Z,6.88
2018-04-07T05:15:34.966Z,6.93
2018-04-07T05:18:02.667Z,6.88
2018-04-07T05:20:30.180Z,6.96
2018-04-07T05:22:57.715Z,6.97
2018-04-07T05:25:25.254Z,7.03
2018-04-07T05:27:53.133Z,7.05
2018-04-07T05:30:21.081Z,7.14
2018-04-07T05:32:48.605Z,7.17
2018-04-07T05:35:16.126Z,7.22
2018-04-07T05:37:43.671Z,7.27
2018-04-07T05:40:11.185Z,7.33
2018-04-07T05:42:38.737Z,7.49
2018-04-07T05:45:06.267Z,7.60
2018-04-07T05:47:33.778Z,7.57
2018-04-07T05:50:01.572Z,7.66
2018-04-07T05:52:29.082Z,7.89
2018-04-07T05:54:56.773Z,8.19
2018-04-07T05:57:24.281Z,8.48
2018-04-07T05:59:51.805Z,8.84
2018-04-07T06:02:19.398Z,9.16
2018-04-07T06:04:47.037Z,9.58
2018-04-07T06:07:14.598Z,9.83
2018-04-07T06:09:42.113Z,10.22
2018-04-07T06:12:09.702Z,10.32
2018-04-07T06:14:37.270Z,10.52
2018-04-07T06:17:04.903Z,10.71
2018-04-07T06:19:32.510Z,11.17
2018-04-07T06:22:00.042Z,11.40
2018-04-07T06:24:27.646Z,11.86
2018-04-07T06:26:55.197Z,12.19
2018-04-07T06:29:22.731Z,12.48
2018-04-07T06:31:50.286Z,13.03
2018-04-07T06:34:17.817Z,13.19
2018-04-07T06:36:45.354Z,13.53
2018-04-07T06:39:12.917Z,13.81
2018-04-07T06:41:40.438Z,14.38
2018-04-07T06:44:08.025Z,14.26
2018-04-07T06:46:35.544Z,14.21
2018-04-07T06:49:03.070Z,14.20
2018-04-07T06:51:30.613Z,13.76
2018-04-07T06:53:58.133Z,13.82
2018-04-07T06:56:25.781Z,13.83
2018-04-07T06:58:53.301Z,14.20
2018-04-07T07:01:20.814Z,14.80
2018-04-07T07:03:48.357Z,15.22
2018-04-07T07:06:15.890Z,15.41
2018-04-07T07:08:47.160Z,15.82
2018-04-07T07:11:14.715Z,15.93
2018-04-07T07:13:42.793Z,15.88
2018-04-07T07:16:10.439Z,15.93
2018-04-07T07:18:38.025Z,16.33
2018-04-07T07:21:05.789Z,15.83
2018-04-07T07:23:33.309Z,16.58
2018-04-07T07:26:00.897Z,16.80
2018-04-07T07:28:28.443Z,16.24
2018-04-07T07:30:56.321Z,16.81
2018-04-07T07:33:23.947Z,17.15
2018-04-07T07:35:51.849Z,17.54
2018-04-07T07:38:19.616Z,17.37
2018-04-07T07:40:47.176Z,17.68
2018-04-07T07:43:14.834Z,17.98
2018-04-07T07:45:42.708Z,18.53
2018-04-07T07:48:10.246Z,19.04
2018-04-07T07:50:37.790Z,19.37
2018-04-07T07:53:05.431Z,19.76
2018-04-07T07:55:33.318Z,20.22
2018-04-07T07:58:01.245Z,20.67
2018-04-07T08:00:28.953Z,19.61
2018-04-07T08:02:56.538Z,20.40
2018-04-07T08:05:24.143Z,20.19
2018-04-07T08:07:52.487Z,21.04
2018-04-07T08:10:20.225Z,20.73
2018-04-07T08:12:47.906Z,22.04
2018-04-07T08:15:15.551Z,21.77
2018-04-07T08:17:43.435Z,21.98
2018-04-07T08:20:11.200Z,22.47
2018-04-07T08:22:39.551Z,22.89
2018-04-07T08:25:07.172Z,23.44
2018-04-07T08:27:34.806Z,24.15
2018-04-07T08:30:03.009Z,25.03
2018-04-07T08:32:30.557Z,24.97
2018-04-07T08:34:58.176Z,25.92
2018-04-07T08:37:25.697Z,26.06
2018-04-07T08:39:53.210Z,26.05
2018-04-07T08:42:20.866Z,27.19
2018-04-07T08:44:48.387Z,27.62
2018-04-07T08:47:16.187Z,28.81
2018-04-07T08:49:43.705Z,29.97
2018-04-07T08:52:11.229Z,30.11
2018-04-07T08:54:39.278Z,31.12
2018-04-07T08:57:06.905Z,29.67
2018-04-07T08:59:34.790Z,30.05
2018-04-07T09:02:02.437Z,30.46
2018-04-07T09:04:30.220Z,30.68
2018-04-07T09:06:57.769Z,31.88
2018-04-07T09:09:25.341Z,31.42
2018-04-07T09:11:53.422Z,32.11
2018-04-07T09:14:21.065Z,31.49
2018-04-07T09:16:48.745Z,33.17
2018-04-07T09:19:16.353Z,33.58
2018-04-07T09:21:43.969Z,33.87
2018-04-07T09:24:12.141Z,34.42
2018-04-07T09:26:39.668Z,34.62
2018-04-07T09:29:07.198Z,34.99
2018-04-07T09:31:35.158Z,35.71
2018-04-07T09:34:03.606Z,36.44
2018-04-07T09:36:31.359Z,36.53
2018-04-07T09:38:58.881Z,37.01
2018-04-07T09:41:26.429Z,36.84
2018-04-07T09:43:54.152Z,37.05
2018-04-07T09:46:21.845Z,35.53
2018-04-07T09:48:49.415Z,36.18
2018-04-07T09:51:16.935Z,36.85
2018-04-07T09:53:44.523Z,36.44
2018-04-07T09:56:12.077Z,37.67
2018-04-07T09:58:39.725Z,37.44
2018-04-07T10:01:07.419Z,37.59
2018-04-07T10:03:34.929Z,38.33
2018-04-07T10:06:02.529Z,37.97
2018-04-07T10:08:30.052Z,38.29
2018-04-07T10:10:57.750Z,36.23
2018-04-07T10:13:25.323Z,35.84
2018-04-07T10:15:52.848Z,37.38
2018-04-07T10:18:21.186Z,37.64
2018-04-07T10:20:48.712Z,38.70
2018-04-07T10:23:16.555Z,36.41
2018-04-07T10:25:44.117Z,38.34
2018-04-07T10:28:11.701Z,38.98
2018-04-07T10:30:39.277Z,39.38
2018-04-07T10:33:06.907Z,39.78
2018-04-07T10:35:34.546Z,39.97
2018-04-07T10:38:02.152Z,38.82
2018-04-07T10:40:29.836Z,40.33
2018-04-07T10:42:57.406Z,39.31
2018-04-07T10:45:24.956Z,40.05
2018-04-07T10:47:52.522Z,39.07
2018-04-07T10:50:20.045Z,40.31
2018-04-07T10:52:47.628Z,40.75
2018-04-07T10:55:15.155Z,41.09
2018-04-07T10:57:42.689Z,41.87
2018-04-07T11:00:10.590Z,42.31
2018-04-07T11:02:38.308Z,42.39
2018-04-07T11:05:05.877Z,41.13
2018-04-07T11:07:33.599Z,39.88
2018-04-07T11:10:01.977Z,39.05
2018-04-07T11:12:29.708Z,39.08
2018-04-07T11:14:57.327Z,38.73
2018-04-07T11:17:24.987Z,39.01
2018-04-07T11:19:52.553Z,39.47
2018-04-07T11:22:20.167Z,39.70
2018-04-07T11:24:47.871Z,40.58
2018-04-07T11:27:15.385Z,40.69
2018-04-07T11:29:42.897Z,40.62
2018-04-07T11:32:10.463Z,41.31
2018-04-07T11:34:37.973Z,38.49
2018-04-07T11:37:05.662Z,41.03
2018-04-07T11:39:33.195Z,39.60
2018-04-07T11:42:00.747Z,40.62
2018-04-07T11:44:28.345Z,39.52
2018-04-07T11:46:55.861Z,39.46
2018-04-07T11:49:23.400Z,40.67
2018-04-07T11:51:50.914Z,40.80
2018-04-07T11:54:18.656Z,40.49
2018-04-07T11:56:46.170Z,41.26
2018-04-07T11:59:13.718Z,40.33
2018-04-07T12:01:41.271Z,39.52
2018-04-07T12:04:09.127Z,40.07
2018-04-07T12:06:36.791Z,38.92
2018-04-07T12:09:04.379Z,40.02
2018-04-07T12:11:32.092Z,40.39
2018-04-07T12:13:59.642Z,42.64
2018-04-07T12:16:27.310Z,41.43
2018-04-07T12:18:55.092Z,41.15
2018-04-07T12:21:22.675Z,41.18
2018-04-07T12:23:50.204Z,41.77
2018-04-07T12:26:17.754Z,42.53
2018-04-07T12:28:45.274Z,42.01
2018-04-07T12:31:12.940Z,42.53
2018-04-07T12:33:40.468Z,42.30
2018-04-07T12:36:07.993Z,42.58
2018-04-07T12:38:35.652Z,42.21
2018-04-07T12:41:03.198Z,43.07
2018-04-07T12:43:30.896Z,41.52
2018-04-07T12:45:58.438Z,42.58
2018-04-07T12:48:25.967Z,42.08
2018-04-07T12:50:53.506Z,42.13
2018-04-07T12:53:21.029Z,42.98
2018-04-07T12:55:48.665Z,42.21
2018-04-07T12:58:16.202Z,41.65
2018-04-07T13:00:43.726Z,41.49
2018-04-07T13:03:11.373Z,41.28
2018-04-07T13:05:38.893Z,40.84
2018-04-07T13:08:06.565Z,40.48
2018-04-07T13:10:34.131Z,41.64
2018-04-07T13:13:01.647Z,42.30
2018-04-07T13:15:29.198Z,42.61
2018-04-07T13:17:56.713Z,42.61
2018-04-07T13:20:24.337Z,42.57
2018-04-07T13:22:51.867Z,41.96
2018-04-07T13:25:19.486Z,41.10
2018-04-07T13:27:47.021Z,40.88
2018-04-07T13:30:14.546Z,40.96
2018-04-07T13:35:17.409Z,42.42
2018-04-07T13:37:45.269Z,41.71
2018-04-07T13:40:12.784Z,42.89
2018-04-07T13:42:40.293Z,41.81
2018-04-07T13:45:07.843Z,41.57
2018-04-07T13:47:35.536Z,40.32
2018-04-07T13:50:03.099Z,41.06
2018-04-07T13:52:30.614Z,40.79
2018-04-07T13:54:58.152Z,40.39
2018-04-07T13:57:25.693Z,40.53
2018-04-07T13:59:53.241Z,41.20
2018-04-07T14:02:20.962Z,40.84
2018-04-07T14:04:48.514Z,40.39
2018-04-07T14:07:16.022Z,38.69
2018-04-07T14:09:43.561Z,39.89
2018-04-07T14:12:11.082Z,39.38
2018-04-07T14:14:38.636Z,38.49
2018-04-07T14:17:06.175Z,38.93
2018-04-07T14:19:33.695Z,37.82
2018-04-07T14:22:01.246Z,37.26
2018-04-07T14:24:28.828Z,37.71
2018-04-07T14:26:56.381Z,36.07
2018-04-07T14:29:23.935Z,36.03
2018-04-07T14:31:51.461Z,37.12
2018-04-07T14:34:19.560Z,35.79
2018-04-07T14:36:47.288Z,35.69
2018-04-07T14:39:14.830Z,36.91
2018-04-07T14:41:42.417Z,37.39
2018-04-07T14:44:09.940Z,38.39
2018-04-07T14:46:37.597Z,37.83
2018-04-07T14:49:05.140Z,37.94
2018-04-07T14:51:32.649Z,37.29
2018-04-07T14:54:00.184Z,36.90
2018-04-07T14:56:27.701Z,37.02
2018-04-07T14:58:55.208Z,37.03
2018-04-07T15:01:22.738Z,36.46
2018-04-07T15:03:50.309Z,36.26
2018-04-07T15:06:17.843Z,35.25
2018-04-07T15:08:45.434Z,35.08
2018-04-07T15:11:13.064Z,35.83
2018-04-07T15:13:40.616Z,36.00
2018-04-07T15:16:13.885Z,35.63
2018-04-07T15:18:41.810Z,35.57
2018-04-07T15:21:09.486Z,35.40
2018-04-07T15:23:37.009Z,34.66
2018-04-07T15:26:04.614Z,34.35
2018-04-07T15:28:32.175Z,34.66
2018-04-07T15:30:59.728Z,34.48
2018-04-07T15:33:27.745Z,34.02
2018-04-07T15:35:55.278Z,34.05
2018-04-07T15:38:22.836Z,34.11
2018-04-07T15:40:50.424Z,33.23
2018-04-07T15:43:17.983Z,33.23
2018-04-07T15:45:45.717Z,32.32
2018-04-07T15:48:13.859Z,32.08
2018-04-07T15:50:41.449Z,31.94
2018-04-07T15:53:09.046Z,31.35
2018-04-07T15:55:36.573Z,30.53
2018-04-07T15:58:04.145Z,29.70
2018-04-07T16:00:31.668Z,29.14
2018-04-07T16:02:59.257Z,28.52
2018-04-07T16:05:26.846Z,28.00
2018-04-07T16:07:54.449Z,27.71
2018-04-07T16:10:22.141Z,27.51
2018-04-07T16:12:49.777Z,27.16
2018-04-07T16:15:17.390Z,26.92
2018-04-07T16:17:44.985Z,26.72
2018-04-07T16:20:12.642Z,26.16
2018-04-07T16:22:40.502Z,25.90
2018-04-07T16:25:08.458Z,25.82
2018-04-07T16:27:36.129Z,26.02
2018-04-07T16:30:03.850Z,25.86
2018-04-07T16:32:31.422Z,25.68
2018-04-07T16:34:59.079Z,25.47
2018-04-07T16:37:26.740Z,25.36
2018-04-07T16:39:54.273Z,25.29
2018-04-07T16:42:22.273Z,25.31
2018-04-07T16:44:49.794Z,25.22
2018-04-07T16:47:17.633Z,25.13
2018-04-07T16:49:45.179Z,24.98
2018-04-07T16:52:12.696Z,25.09
2018-04-07T16:54:40.241Z,24.96
2018-04-07T16:57:07.885Z,24.74
2018-04-07T16:59:35.945Z,24.64
2018-04-07T17:02:03.601Z,24.67
2018-04-07T17:04:31.234Z,24.52
2018-04-07T17:06:58.806Z,24.52
2018-04-07T17:09:26.370Z,24.32
2018-04-07T17:11:54.936Z,24.29
2018-04-07T17:14:22.457Z,24.20
2018-04-07T17:16:49.982Z,24.00
2018-04-07T17:19:17.924Z,23.78
2018-04-07T17:21:45.454Z,23.76
2018-04-07T17:24:13.118Z,23.70
2018-04-07T17:26:40.759Z,23.54
2018-04-07T17:29:08.323Z,23.55
2018-04-07T17:34:26.642Z,23.24
2018-04-07T17:36:55.530Z,23.10
2018-04-07T17:39:23.057Z,23.10
2018-04-07T17:41:50.675Z,22.93
2018-04-07T17:44:18.905Z,22.77
2018-04-07T17:46:46.981Z,22.62
2018-04-07T17:49:15.663Z,22.50
2018-04-07T17:51:43.494Z,22.36
2018-04-07T17:54:11.190Z,22.19
2018-04-07T17:56:38.958Z,22.02
2018-04-07T17:59:06.616Z,21.87
2018-04-07T18:01:34.460Z,21.72
2018-04-07T18:04:02.143Z,21.59
2018-04-07T18:06:29.724Z,21.46
2018-04-07T18:08:57.575Z,21.37
2018-04-07T18:11:25.371Z,21.32
2018-04-07T18:13:57.150Z,21.33
2018-04-07T18:16:24.838Z,21.30
2018-04-07T18:18:52.497Z,21.22
2018-04-07T18:21:20.387Z,21.14
2018-04-07T18:23:48.245Z,21.00
2018-04-07T18:26:16.635Z,20.94
2018-04-07T18:28:44.184Z,20.84
2018-04-07T18:31:11.726Z,20.87
2018-04-07T18:33:39.308Z,20.79
2018-04-07T18:36:06.969Z,20.65
2018-04-07T18:38:34.581Z,20.60
2018-04-07T18:41:17.201Z,20.57
2018-04-07T18:43:44.900Z,20.52
2018-04-07T18:46:12.671Z,20.46
2018-04-07T18:48:40.743Z,20.35
2018-04-07T18:51:08.513Z,20.24
2018-04-07T18:53:46.919Z,20.12
2018-04-07T18:56:14.953Z,19.94
2018-04-07T18:58:42.654Z,19.82
2018-04-07T19:01:10.208Z,19.72
2018-04-07T19:03:37.814Z,19.68
2018-04-07T19:06:05.391Z,19.61
2018-04-07T19:08:33.441Z,19.51
2018-04-07T19:11:01.373Z,19.43
2018-04-07T19:13:29.236Z,19.37
2018-04-07T19:15:56.999Z,19.30
2018-04-07T19:18:24.766Z,19.23
2018-04-07T19:20:53.249Z,19.19
2018-04-07T19:23:21.113Z,19.14
2018-04-07T19:25:49.184Z,19.08
2018-04-07T19:28:17.054Z,19.04
2018-04-07T19:33:35.413Z,18.93
2018-04-07T19:36:03.314Z,18.91
2018-04-07T19:38:31.155Z,18.82
2018-04-07T19:40:59.945Z,18.73
2018-04-07T19:43:27.805Z,18.68
2018-04-07T19:45:55.547Z,18.66
2018-04-07T19:48:23.444Z,18.62
2018-04-07T19:50:51.504Z,18.56
2018-04-07T19:53:19.561Z,18.50
2018-04-07T19:56:11.100Z,18.45
2018-04-07T19:58:39.721Z,18.38
2018-04-07T20:01:07.436Z,18.35
2018-04-07T20:03:35.822Z,18.33
2018-04-07T20:06:03.691Z,18.29
2018-04-07T20:08:32.069Z,18.11
2018-04-07T20:11:01.230Z,18.06
2018-04-07T20:13:33.129Z,17.94
2018-04-07T20:16:00.914Z,17.83
2018-04-07T20:18:28.831Z,17.74
2018-04-07T20:20:56.827Z,17.61
2018-04-07T20:23:24.807Z,17.55
2018-04-07T20:25:52.696Z,17.48
2018-04-07T20:28:20.970Z,17.45
2018-04-07T20:30:48.677Z,17.41
2018-04-07T20:33:16.576Z,17.35
2018-04-07T20:35:44.548Z,17.29
2018-04-07T20:38:12.408Z,17.26
2018-04-07T20:40:40.381Z,17.19
2018-04-07T20:43:15.108Z,17.15
2018-04-07T20:45:42.977Z,17.13
2018-04-07T20:48:11.232Z,17.10
2018-04-07T20:50:39.004Z,17.05
2018-04-07T20:53:06.781Z,16.97
2018-04-07T20:55:34.639Z,16.89
2018-04-07T20:58:02.374Z,16.83
2018-04-07T21:00:30.124Z,16.78
2018-04-07T21:02:57.813Z,16.72
2018-04-07T21:05:25.479Z,16.68
2018-04-07T21:07:53.070Z,16.62
2018-04-07T21:10:21.221Z,16.57
2018-04-07T21:12:48.869Z,16.51
2018-04-07T21:15:16.552Z,16.47
2018-04-07T21:17:44.342Z,16.45
2018-04-07T21:20:12.075Z,16.40
2018-04-07T21:22:41.381Z,16.46
2018-04-07T21:25:09.111Z,16.46
2018-04-07T21:27:36.697Z,16.34
2018-04-07T21:30:04.668Z,16.30
2018-04-07T21:32:32.426Z,16.17
2018-04-07T21:34:59.984Z,16.00
2018-04-07T21:37:28.370Z,16.09
2018-04-07T21:39:56.031Z,16.13
2018-04-07T21:42:23.694Z,16.07
2018-04-07T21:44:51.662Z,16.02
2018-04-07T21:47:19.795Z,15.92
2018-04-07T21:49:47.498Z,15.86
2018-04-07T21:52:15.366Z,15.98
2018-04-07T21:54:43.141Z,15.95
2018-04-07T21:57:10.895Z,15.87
2018-04-07T21:59:38.469Z,15.78
2018-04-07T22:02:06.202Z,15.69
2018-04-07T22:04:33.876Z,15.62
2018-04-07T22:07:01.445Z,15.61
2018-04-07T22:09:29.058Z,15.56
2018-04-07T22:11:56.700Z,15.57
2018-04-07T22:14:24.532Z,15.50
2018-04-07T22:16:53.198Z,15.44
2018-04-07T22:19:20.974Z,15.36
2018-04-07T22:21:48.840Z,15.42
2018-04-07T22:24:16.707Z,15.41
2018-04-07T22:26:44.461Z,15.38
2018-04-07T22:29:12.241Z,15.32
2018-04-07T22:31:39.897Z,15.25
2018-04-07T22:34:07.743Z,15.26
2018-04-07T22:36:36.892Z,15.18
2018-04-07T22:39:05.215Z,15.15
2018-04-07T22:41:34.227Z,15.07
2018-04-07T22:44:01.831Z,15.01
2018-04-07T22:46:29.991Z,14.95
2018-04-07T22:48:57.726Z,14.91
2018-04-07T22:51:25.288Z,14.89
2018-04-07T22:53:52.934Z,14.80
2018-04-07T22:56:20.815Z,14.76
2018-04-07T22:58:48.811Z,14.69
2018-04-07T23:01:17.597Z,14.60
2018-04-07T23:03:45.556Z,14.57
2018-04-07T23:06:13.158Z,14.46
2018-04-07T23:08:41.072Z,14.42
2018-04-07T23:11:08.597Z,14.34
2018-04-07T23:13:36.222Z,14.26
2018-04-07T23:16:03.754Z,14.16
2018-04-07T23:18:31.337Z,14.06
2018-04-07T23:20:59.057Z,13.80
2018-04-07T23:23:26.586Z,13.67
2018-04-07T23:25:54.262Z,13.40
2018-04-07T23:28:21.779Z,13.50
2018-04-07T23:30:49.497Z,13.42
2018-04-07T23:33:17.027Z,13.30
2018-04-07T23:35:44.554Z,13.16
2018-04-07T23:38:12.113Z,13.18
2018-04-07T23:40:39.654Z,13.06
2018-04-07T23:43:07.818Z,12.91
2018-04-07T23:45:35.333Z,12.86
2018-04-07T23:48:02.882Z,13.04
2018-04-07T23:50:30.438Z,12.75
2018-04-07T23:52:57.958Z,12.72
2018-04-07T23:55:25.899Z,12.93
2018-04-07T23:57:53.458Z,12.99
